Time;durP1;ratioP1;P1;durP2;ratioP2;P2;SDS_P1;SDS_P2;PMS_P1;PMS_P2;Temp;Humidity;BMP_temperature;BMP_pressure;BME280_temperature;BME280_humidity;BME280_pressure;Samples;Min_cycle;Max_cycle;Signal;HPM_P1;HPM_P2
2023/09/24 00:00:25;;;;;;;7.00;2.70;;;;;;;17.93;88.68;95654.77;110574;1276;22100;-76
2023/09/24 00:03:14;;;;;;;5.00;2.50;;;;;;;17.97;88.87;95654.23;110603;1276;22107;-76
2023/09/24 00:05:44;;;;;;;15.60;2.60;;;;;;;17.94;88.33;95656.30;110617;1276;22144;-76
2023/09/24 00:08:13;;;;;;;5.20;2.30;;;;;;;17.97;88.58;95649.23;110581;1275;22185;-76
2023/09/24 00:10:41;;;;;;;7.90;2.90;;;;;;;17.98;88.15;95642.27;110433;1276;22191;-76
2023/09/24 00:13:09;;;;;;;5.90;2.00;;;;;;;17.99;88.34;95633.86;110475;1276;22201;-76
2023/09/24 00:15:38;;;;;;;6.90;2.60;;;;;;;17.93;88.49;95623.63;110533;1276;22154;-76
2023/09/24 00:18:06;;;;;;;4.70;2.40;;;;;;;17.91;88.67;95632.59;110565;1276;22204;-76
2023/09/24 00:20:35;;;;;;;8.00;2.50;;;;;;;17.88;88.29;95637.94;110567;1276;22955;-76
2023/09/24 00:23:03;;;;;;;6.50;2.80;;;;;;;17.81;88.01;95645.00;110442;1276;22225;-76
2023/09/24 00:25:31;;;;;;;7.10;2.70;;;;;;;17.75;88.25;95662.86;110543;1276;23006;-76
2023/09/24 00:27:59;;;;;;;9.00;2.80;;;;;;;17.73;88.89;95655.13;110569;1275;22111;-77
2023/09/24 00:30:27;;;;;;;9.60;2.80;;;;;;;17.74;89.27;95653.29;110547;1276;22184;-76
2023/09/24 00:33:00;;;;;;;7.70;2.50;;;;;;;17.73;88.98;95652.81;110608;1272;22147;-76
2023/09/24 00:35:33;;;;;;;7.70;2.50;;;;;;;17.71;88.96;95641.51;110460;1276;22161;-76
2023/09/24 00:38:01;;;;;;;4.90;2.10;;;;;;;17.73;89.32;95628.22;110429;1276;22160;-76
2023/09/24 00:40:30;;;;;;;3.90;2.00;;;;;;;17.80;89.41;95626.55;110588;1276;22133;-76
2023/09/24 00:42:59;;;;;;;6.10;2.70;;;;;;;17.82;88.86;95624.68;110413;1276;22247;-76
2023/09/24 00:45:28;;;;;;;7.10;2.60;;;;;;;17.79;88.58;95611.98;110581;1276;22446;-77
2023/09/24 00:47:57;;;;;;;7.00;2.40;;;;;;;17.73;88.49;95597.98;110604;1276;22118;-76
2023/09/24 00:50:33;;;;;;;6.10;3.00;;;;;;;17.71;88.42;95614.29;110582;1276;22101;-75
2023/09/24 00:53:02;;;;;;;5.80;2.30;;;;;;;17.68;88.22;95638.08;110399;1276;22885;-76
2023/09/24 00:55:32;;;;;;;6.10;2.20;;;;;;;17.67;88.39;95621.77;110421;1276;22121;-76
2023/09/24 00:58:03;;;;;;;7.00;2.40;;;;;;;17.69;88.58;95624.90;110432;1276;22166;-77
2023/09/24 01:00:34;;;;;;;6.50;3.00;;;;;;;17.67;88.44;95631.02;110588;1275;22157;-77
2023/09/24 01:03:05;;;;;;;4.50;2.00;;;;;;;17.71;89.11;95638.64;110424;1276;22126;-76
2023/09/24 01:05:34;;;;;;;5.60;2.50;;;;;;;17.77;88.72;95618.66;110461;1276;22880;-76
2023/09/24 01:08:04;;;;;;;5.30;1.90;;;;;;;17.76;88.96;95612.48;110558;1276;22269;-76
2023/09/24 01:10:32;;;;;;;7.30;2.20;;;;;;;17.72;88.41;95607.50;110554;1276;22141;-76
2023/09/24 01:13:01;;;;;;;7.90;2.40;;;;;;;17.67;88.87;95609.30;110568;1276;22324;-76
2023/09/24 01:15:31;;;;;;;6.30;2.50;;;;;;;17.69;89.70;95609.08;110291;1276;22230;-76
2023/09/24 01:18:01;;;;;;;5.00;2.60;;;;;;;17.77;89.57;95615.27;110538;1276;22151;-77
2023/09/24 01:20:31;;;;;;;9.20;2.30;;;;;;;17.84;89.32;95620.83;110531;1276;22107;-76
2023/09/24 01:23:04;;;;;;;8.70;3.70;;;;;;;17.88;88.91;95614.05;110549;1275;22224;-76
2023/09/24 01:25:34;;;;;;;6.70;2.70;;;;;;;17.84;88.74;95611.55;110596;1276;22153;-77
2023/09/24 01:28:07;;;;;;;8.10;3.20;;;;;;;17.87;89.53;95612.32;110533;1276;22141;-76
2023/09/24 01:30:35;;;;;;;4.30;2.70;;;;;;;17.95;89.51;95610.36;110462;1276;22225;-77
2023/09/24 01:33:04;;;;;;;7.70;3.30;;;;;;;17.98;89.22;95606.45;110441;1275;22349;-76
2023/09/24 01:35:34;;;;;;;6.50;2.90;;;;;;;17.98;88.74;95595.96;110420;1275;22972;-76
2023/09/24 01:38:04;;;;;;;6.90;3.40;;;;;;;18.04;89.07;95582.73;110447;1276;22237;-77
2023/09/24 01:40:35;;;;;;;14.30;3.70;;;;;;;18.11;89.36;95574.85;110460;1276;22202;-77
2023/09/24 01:43:05;;;;;;;6.10;3.00;;;;;;;18.14;88.94;95571.88;110392;1275;22244;-76
2023/09/24 01:45:38;;;;;;;9.50;2.90;;;;;;;18.16;89.05;95564.12;110432;1276;22214;-76
2023/09/24 01:48:07;;;;;;;;;;;;;;;18.21;88.76;95554.64;110413;1276;22410;-77
2023/09/24 01:50:36;;;;;;;7.60;3.20;;;;;;;18.22;88.73;95546.56;110549;1276;22208;-77
2023/09/24 01:53:06;;;;;;;5.30;3.50;;;;;;;18.19;88.18;95542.09;110467;1275;22175;-76
2023/09/24 01:55:36;;;;;;;5.40;3.40;;;;;;;18.13;88.48;95526.92;110435;1275;22266;-75
2023/09/24 01:58:05;;;;;;;7.40;3.30;;;;;;;18.12;88.66;95516.77;110458;1275;22160;-76
2023/09/24 02:00:33;;;;;;;5.70;3.10;;;;;;;18.18;88.80;95506.02;110476;1275;22337;-76
2023/09/24 02:03:07;;;;;;;6.40;2.80;;;;;;;18.22;88.85;95499.73;110459;1276;22116;-76
2023/09/24 02:05:39;;;;;;;8.80;3.60;;;;;;;18.20;88.05;95494.66;110483;1276;22120;-77
2023/09/24 02:08:09;;;;;;;6.70;2.90;;;;;;;18.15;88.09;95494.03;110302;1276;22190;-77
2023/09/24 02:10:39;;;;;;;5.60;2.90;;;;;;;18.13;88.18;95487.39;110375;1276;22245;-77
2023/09/24 02:13:09;;;;;;;5.10;3.10;;;;;;;18.16;88.76;95480.82;110460;1276;22236;-76
2023/09/24 02:15:42;;;;;;;6.60;3.70;;;;;;;18.16;88.76;95483.16;110557;1275;22199;-76
2023/09/24 02:18:10;;;;;;;9.40;3.30;;;;;;;18.18;88.92;95487.69;110543;1275;22178;-77
2023/09/24 02:20:41;;;;;;;4.60;2.50;;;;;;;18.21;88.52;95498.59;110469;1276;22109;-76
2023/09/24 02:23:11;;;;;;;8.50;3.20;;;;;;;18.22;88.64;95506.55;110574;1275;22145;-76
2023/09/24 02:25:47;;;;;;;5.30;2.40;;;;;;;18.26;88.13;95502.21;110570;1275;22122;-77
2023/09/24 02:28:17;;;;;;;6.20;2.60;;;;;;;18.21;87.57;95499.78;110469;1276;22188;-76
2023/09/24 02:30:47;;;;;;;4.80;2.30;;;;;;;18.20;87.75;95495.94;110565;1276;22096;-76
2023/09/24 02:33:16;;;;;;;4.30;3.00;;;;;;;18.18;87.88;95495.13;110460;1276;22143;-76
2023/09/24 02:35:44;;;;;;;8.60;2.50;;;;;;;18.21;87.70;95498.02;110435;1276;22976;-77
2023/09/24 02:38:14;;;;;;;5.00;2.30;;;;;;;18.18;87.20;95489.79;110460;1276;22192;-77
2023/09/24 02:40:42;;;;;;;7.80;2.40;;;;;;;18.14;87.26;95484.65;110455;1275;22134;-77
2023/09/24 02:43:11;;;;;;;6.90;2.30;;;;;;;18.15;87.37;95475.53;110555;1276;22872;-77
2023/09/24 02:45:39;;;;;;;7.90;2.10;;;;;;;18.12;87.07;95475.66;110601;1260;22130;-76
2023/09/24 02:48:08;;;;;;;6.00;2.10;;;;;;;18.11;87.47;95476.23;110553;1276;22199;-76
2023/09/24 02:50:36;;;;;;;6.60;2.50;;;;;;;18.14;87.53;95466.11;110544;1275;22969;-76
2023/09/24 02:53:05;;;;;;;5.00;1.90;;;;;;;18.18;87.27;95467.91;110606;1276;22479;-76
2023/09/24 02:55:35;;;;;;;7.50;2.40;;;;;;;18.20;87.22;95470.48;110478;1276;22085;-76
2023/09/24 02:58:05;;;;;;;4.40;2.20;;;;;;;18.21;87.08;95469.02;110577;1276;22144;-77
2023/09/24 03:00:36;;;;;;;5.00;2.60;;;;;;;18.18;86.96;95462.55;110556;1276;22932;-77
2023/09/24 03:03:05;;;;;;;10.90;2.80;;;;;;;18.17;87.32;95464.95;110479;1276;23007;-77
2023/09/24 03:05:38;;;;;;;7.70;2.20;;;;;;;18.09;86.88;95467.64;110576;1276;22132;-77
2023/09/24 03:08:09;;;;;;;10.10;3.00;;;;;;;18.03;87.44;95469.02;110349;1276;22133;-77
2023/09/24 03:10:38;;;;;;;4.10;2.30;;;;;;;17.98;87.58;95469.59;110282;1276;22858;-77
2023/09/24 03:13:06;;;;;;;8.10;2.90;;;;;;;17.99;88.12;95461.40;110548;1276;22311;-77
2023/09/24 03:15:34;;;;;;;4.90;2.50;;;;;;;17.97;87.54;95452.42;110592;1276;22910;-77
2023/09/24 03:18:04;;;;;;;7.00;2.60;;;;;;;17.91;87.36;95449.13;110469;1276;22115;-77
2023/09/24 03:20:32;;;;;;;5.40;2.70;;;;;;;17.81;88.01;95438.42;110469;1275;22270;-77
2023/09/24 03:23:08;;;;;;;7.50;2.70;;;;;;;17.76;87.87;95442.91;110538;1275;22189;-77
2023/09/24 03:25:39;;;;;;;8.60;3.20;;;;;;;17.79;88.50;95447.61;110596;1276;22212;-77
2023/09/24 03:28:08;;;;;;;4.40;2.60;;;;;;;17.80;88.15;95448.45;110464;1275;22246;-77
2023/09/24 03:30:36;;;;;;;9.00;3.10;;;;;;;17.75;88.19;95445.45;110554;1276;22949;-77
2023/09/24 03:33:05;;;;;;;9.30;3.00;;;;;;;17.77;88.76;95445.56;110567;1275;22171;-77
2023/09/24 03:35:33;;;;;;;5.20;2.40;;;;;;;17.74;88.89;95441.57;110533;1276;22965;-77
2023/09/24 03:38:02;;;;;;;5.60;2.20;;;;;;;17.78;89.17;95437.85;110420;1263;22107;-76
2023/09/24 03:40:30;;;;;;;9.30;2.40;;;;;;;17.79;88.49;95442.81;110424;1275;22121;-76
2023/09/24 03:42:59;;;;;;;7.90;2.20;;;;;;;17.70;87.84;95443.02;110413;1276;22889;-77
2023/09/24 03:45:31;;;;;;;7.40;1.90;;;;;;;17.69;88.32;95441.48;110408;1275;23836;-77
2023/09/24 03:47:59;;;;;;;6.40;2.50;;;;;;;17.67;87.47;95447.08;110593;1276;22934;-76
2023/09/24 03:50:28;;;;;;;7.90;2.00;;;;;;;17.56;86.74;95448.84;110393;1276;22143;-76
2023/09/24 03:52:56;;;;;;;7.70;2.30;;;;;;;17.45;87.00;95454.21;110447;1275;22166;-76
2023/09/24 03:55:25;;;;;;;3.90;1.70;;;;;;;17.39;87.02;95456.25;110547;1276;22188;-77
2023/09/24 03:57:54;;;;;;;9.10;2.10;;;;;;;17.35;86.97;95458.92;110329;1275;22134;-76
2023/09/24 04:00:25;;;;;;;6.50;2.40;;;;;;;17.34;86.98;95458.62;110402;1275;22272;-75
2023/09/24 04:02:54;;;;;;;10.20;2.70;;;;;;;17.28;86.47;95463.70;110566;1276;22238;-76
2023/09/24 04:05:23;;;;;;;13.00;3.90;;;;;;;17.19;86.38;95467.34;110603;1276;22113;-76
2023/09/24 04:07:54;;;;;;;9.40;3.30;;;;;;;17.05;86.06;95477.91;110405;1275;22282;-76
2023/09/24 04:10:27;;;;;;;8.30;2.90;;;;;;;16.90;86.14;95483.42;110344;1276;22269;-77
2023/09/24 04:13:00;;;;;;;12.50;3.40;;;;;;;16.80;86.48;95485.64;110415;1275;22115;-77
2023/09/24 04:15:29;;;;;;;12.40;3.80;;;;;;;16.74;86.33;95495.12;110557;1276;22145;-77
2023/09/24 04:17:59;;;;;;;9.10;3.30;;;;;;;16.69;86.43;95501.73;110276;1276;22105;-77
2023/09/24 04:20:33;;;;;;;5.70;2.90;;;;;;;16.61;86.79;95500.63;110554;1276;22113;-77
2023/09/24 04:23:02;;;;;;;10.40;3.40;;;;;;;16.55;87.63;95505.69;110583;1276;22133;-77
2023/09/24 04:25:38;;;;;;;7.80;3.10;;;;;;;16.52;88.65;95514.55;110552;1273;22124;-77
2023/09/24 04:28:13;;;;;;;7.40;3.10;;;;;;;16.54;88.69;95517.98;110593;1276;22136;-77
2023/09/24 04:30:43;;;;;;;6.40;3.00;;;;;;;16.56;88.86;95516.48;110627;1276;22138;-77
2023/09/24 04:33:11;;;;;;;8.40;3.70;;;;;;;16.64;89.86;95515.96;110563;1276;22186;-76
2023/09/24 04:35:39;;;;;;;14.20;4.20;;;;;;;16.69;90.18;95526.41;110605;1276;22609;-76
2023/09/24 04:38:08;;;;;;;7.20;4.60;;;;;;;16.73;90.24;95536.71;110598;1269;22139;-76
2023/09/24 04:40:36;;;;;;;10.10;4.30;;;;;;;16.78;90.30;95534.74;110542;1276;22192;-77
2023/09/24 04:43:05;;;;;;;8.20;4.20;;;;;;;16.82;90.27;95535.45;110617;1276;22182;-76
2023/09/24 04:45:35;;;;;;;8.10;4.30;;;;;;;16.87;91.05;95540.74;110549;1276;22446;-76
2023/09/24 04:48:04;;;;;;;9.30;4.00;;;;;;;16.92;90.97;95549.41;110455;1276;22292;-77
2023/09/24 04:50:33;;;;;;;10.80;3.90;;;;;;;16.97;90.71;95548.84;110548;1276;22319;-77
2023/09/24 04:53:05;;;;;;;10.00;4.00;;;;;;;17.00;90.75;95549.56;110449;1276;22138;-76
2023/09/24 04:55:34;;;;;;;8.40;3.40;;;;;;;17.03;90.80;95542.89;110577;1272;22935;-77
2023/09/24 04:58:13;;;;;;;8.10;3.40;;;;;;;17.07;90.89;95550.88;110575;1276;23035;-76
2023/09/24 05:00:42;;;;;;;6.30;3.70;;;;;;;17.17;90.84;95555.41;110441;1276;22557;-76
2023/09/24 05:03:10;;;;;;;11.10;3.60;;;;;;;17.21;90.59;95547.77;110592;1276;22087;-76
2023/09/24 05:05:42;;;;;;;7.90;3.10;;;;;;;17.26;90.63;95548.96;110555;1275;22141;-77
2023/09/24 05:08:10;;;;;;;9.60;3.80;;;;;;;17.26;90.42;95549.46;110330;1276;22164;-77
2023/09/24 05:10:41;;;;;;;7.90;3.80;;;;;;;17.28;90.63;95550.29;110574;1275;22109;-77
2023/09/24 05:13:11;;;;;;;9.10;4.50;;;;;;;17.28;90.04;95551.34;110610;1276;22127;-77
2023/09/24 05:15:39;;;;;;;8.90;3.80;;;;;;;17.29;90.26;95556.11;110592;1275;22306;-77
2023/09/24 05:18:08;;;;;;;8.80;3.90;;;;;;;17.37;90.67;95561.42;110602;1276;22088;-77
2023/09/24 05:20:36;;;;;;;6.80;3.80;;;;;;;17.50;90.46;95574.70;110583;1275;22327;-77
2023/09/24 05:23:04;;;;;;;7.00;3.40;;;;;;;17.54;89.43;95581.98;110562;1275;22627;-77
2023/09/24 05:25:36;;;;;;;6.00;3.60;;;;;;;17.53;89.02;95572.41;110579;1276;22204;-78
2023/09/24 05:28:05;;;;;;;9.50;4.00;;;;;;;17.52;89.16;95565.52;110585;1275;22204;-77
2023/09/24 05:30:34;;;;;;;8.60;4.10;;;;;;;17.53;89.27;95562.80;110574;1276;22992;-77
2023/09/24 05:33:03;;;;;;;6.50;3.90;;;;;;;17.55;89.36;95566.46;110563;1276;22186;-77
2023/09/24 05:35:31;;;;;;;7.00;3.90;;;;;;;17.58;89.39;95559.92;110583;1276;22835;-77
2023/09/24 05:38:00;;;;;;;7.20;4.10;;;;;;;17.61;89.50;95549.30;110583;1276;22225;-77
2023/09/24 05:40:28;;;;;;;10.40;4.00;;;;;;;17.71;89.73;95556.09;110512;1275;22129;-77
2023/09/24 05:42:56;;;;;;;9.20;4.10;;;;;;;17.81;89.36;95567.40;110557;1275;22150;-77
2023/09/24 05:45:24;;;;;;;9.50;3.90;;;;;;;17.88;89.05;95570.66;110612;1276;22911;-76
2023/09/24 05:47:52;;;;;;;8.30;4.20;;;;;;;17.97;89.01;95556.53;110580;1276;22358;-76
2023/09/24 05:50:21;;;;;;;9.50;4.10;;;;;;;18.03;88.46;95554.99;110580;1275;22229;-76
2023/09/24 05:52:49;;;;;;;11.10;3.70;;;;;;;18.07;87.85;95557.46;110596;1264;22928;-76
2023/09/24 05:55:17;;;;;;;7.70;3.60;;;;;;;18.17;87.66;95559.29;110564;1275;22158;-77
2023/09/24 05:57:45;;;;;;;10.10;3.50;;;;;;;18.23;86.81;95556.86;110597;1275;22828;-77
2023/09/24 06:00:14;;;;;;;11.10;3.50;;;;;;;18.27;86.36;95551.66;110602;1275;22116;-77
2023/09/24 06:02:42;;;;;;;5.90;2.80;;;;;;;18.27;86.06;95542.41;110585;1276;22255;-77
2023/09/24 06:05:10;;;;;;;8.30;3.20;;;;;;;18.32;86.68;95549.30;110554;1275;22123;-77
2023/09/24 06:07:38;;;;;;;6.70;3.40;;;;;;;18.43;86.30;95555.89;110555;1272;22951;-77
2023/09/24 06:10:09;;;;;;;8.30;3.40;;;;;;;18.36;84.56;95549.06;110574;1276;22937;-77
2023/09/24 06:12:38;;;;;;;6.80;3.20;;;;;;;18.35;84.95;95542.20;110618;1272;22224;-77
2023/09/24 06:15:08;;;;;;;6.10;2.60;;;;;;;18.36;85.39;95541.42;110591;1276;22102;-77
2023/09/24 06:17:36;;;;;;;6.70;3.20;;;;;;;18.42;85.41;95548.11;110489;1275;22150;-77
2023/09/24 06:20:06;;;;;;;7.80;3.20;;;;;;;18.46;85.14;95548.04;110574;1276;22164;-77
2023/09/24 06:22:35;;;;;;;7.50;2.80;;;;;;;18.49;84.82;95554.52;110547;1276;22203;-77
2023/09/24 06:25:03;;;;;;;5.20;3.00;;;;;;;18.51;84.99;95556.89;110582;1276;22221;-77
2023/09/24 06:27:32;;;;;;;7.50;3.50;;;;;;;18.55;84.51;95559.55;110532;1276;22261;-76
2023/09/24 06:30:04;;;;;;;6.80;3.00;;;;;;;18.54;84.33;95569.88;110556;1275;22257;-77
2023/09/24 06:32:32;;;;;;;6.90;3.50;;;;;;;18.55;84.39;95568.06;110478;1275;22809;-77
2023/09/24 06:35:01;;;;;;;4.80;3.50;;;;;;;18.60;84.39;95566.58;110574;1276;22328;-77
2023/09/24 06:37:30;;;;;;;4.90;3.20;;;;;;;18.62;84.00;95563.29;110586;1276;22103;-76
2023/09/24 06:39:58;;;;;;;9.50;3.40;;;;;;;18.61;84.07;95559.05;110584;1276;22408;-77
2023/09/24 06:42:26;;;;;;;10.50;3.40;;;;;;;18.57;84.14;95562.25;110593;1276;22953;-77
2023/09/24 06:44:54;;;;;;;10.90;3.70;;;;;;;18.54;84.22;95561.54;110591;1276;22894;-77
2023/09/24 06:47:23;;;;;;;10.00;3.10;;;;;;;18.49;84.51;95558.39;110458;1276;22186;-77
2023/09/24 06:49:51;;;;;;;9.50;2.90;;;;;;;18.52;84.70;95555.23;110599;1276;22171;-76
2023/09/24 06:52:19;;;;;;;6.50;3.20;;;;;;;18.57;84.79;95550.33;110582;1276;22100;-77
2023/09/24 06:54:47;;;;;;;6.20;2.90;;;;;;;18.63;84.53;95548.09;110593;1276;22115;-77
2023/09/24 06:57:15;;;;;;;5.40;2.50;;;;;;;18.70;84.64;95550.74;110562;1276;22222;-77
2023/09/24 06:59:44;;;;;;;5.60;2.40;;;;;;;18.78;84.21;95546.08;110550;1276;22127;-77
2023/09/24 07:02:14;;;;;;;8.50;2.30;;;;;;;18.88;84.43;95541.48;110466;1275;22988;-77
2023/09/24 07:04:43;;;;;;;8.70;2.40;;;;;;;18.98;84.31;95542.34;110290;1276;22129;-76
2023/09/24 07:07:11;;;;;;;6.10;2.30;;;;;;;19.12;83.87;95537.56;110597;1275;22106;-76
2023/09/24 07:09:40;;;;;;;8.20;2.70;;;;;;;19.20;83.47;95541.38;110448;1276;22144;-77
2023/09/24 07:12:08;;;;;;;5.70;2.00;;;;;;;19.27;83.53;95546.73;110466;1276;22179;-77
2023/09/24 07:14:36;;;;;;;7.90;2.70;;;;;;;19.39;83.61;95550.70;110587;1276;22859;-77
2023/09/24 07:17:05;;;;;;;8.60;2.60;;;;;;;19.57;83.60;95548.13;110599;1276;22191;-77
2023/09/24 07:19:33;;;;;;;8.40;2.50;;;;;;;19.80;83.60;95552.05;110456;1276;22195;-76
2023/09/24 07:22:02;;;;;;;7.30;2.60;;;;;;;20.03;83.22;95555.98;110588;1276;22124;-76
2023/09/24 07:24:30;;;;;;;6.70;2.80;;;;;;;20.25;82.63;95559.90;110588;1276;22145;-77
2023/09/24 07:27:02;;;;;;;7.30;2.80;;;;;;;20.48;82.39;95563.23;110482;1276;22125;-80
2023/09/24 07:29:31;;;;;;;11.90;2.90;;;;;;;20.79;81.85;95568.08;110503;1276;22246;-76
2023/09/24 07:31:59;;;;;;;10.30;3.10;;;;;;;21.06;80.85;95568.56;110583;1276;22142;-76
2023/09/24 07:34:28;;;;;;;9.40;3.10;;;;;;;21.28;80.53;95572.08;110618;1276;22180;-77
2023/09/24 07:36:57;;;;;;;7.70;3.30;;;;;;;21.44;80.10;95577.38;110497;1276;22288;-77
2023/09/24 07:39:29;;;;;;;;;;;;;;;21.47;79.27;95581.85;110573;1276;22258;-77
2023/09/24 07:41:58;;;;;;;9.00;2.80;;;;;;;21.45;78.49;95586.25;110552;1276;22354;-77
2023/09/24 07:44:26;;;;;;;8.70;2.80;;;;;;;21.41;77.09;95589.91;110542;1276;22866;-77
2023/09/24 07:46:54;;;;;;;7.10;2.90;;;;;;;21.33;76.86;95592.52;110405;1276;22219;-77
2023/09/24 07:49:23;;;;;;;6.20;3.20;;;;;;;21.30;77.07;95596.66;110612;1276;22969;-77
2023/09/24 07:51:51;;;;;;;8.90;3.60;;;;;;;21.28;77.04;95598.95;110617;1276;22150;-76
2023/09/24 07:54:19;;;;;;;13.00;4.00;;;;;;;21.24;76.85;95600.95;110569;1276;22329;-77
2023/09/24 07:56:48;;;;;;;9.70;4.10;;;;;;;21.19;76.71;95606.77;110589;1276;22872;-77
2023/09/24 07:59:16;;;;;;;13.30;3.50;;;;;;;21.11;76.19;95608.37;110560;1276;22224;-77
2023/09/24 08:01:44;;;;;;;7.40;3.10;;;;;;;21.02;75.95;95609.05;110313;1276;23096;-77
2023/09/24 08:04:12;;;;;;;8.90;3.20;;;;;;;20.94;76.38;95608.13;110613;1276;22124;-77
2023/09/24 08:06:42;;;;;;;12.20;4.10;;;;;;;20.88;76.61;95614.20;110601;1276;22807;-77
2023/09/24 08:09:11;;;;;;;20.50;4.50;;;;;;;20.85;76.90;95614.89;110412;1276;22420;-77
2023/09/24 08:11:54;;;;;;;12.00;3.40;;;;;;;20.80;76.50;95620.17;110444;1276;22895;-76
2023/09/24 08:14:23;;;;;;;11.60;3.40;;;;;;;20.75;76.19;95625.47;110557;1276;23097;-76
2023/09/24 08:16:51;;;;;;;12.50;2.90;;;;;;;20.76;76.70;95626.68;110594;1276;22122;-76
2023/09/24 08:19:19;;;;;;;9.70;2.90;;;;;;;20.82;76.75;95627.22;110425;1276;22167;-76
2023/09/24 08:21:48;;;;;;;8.50;2.80;;;;;;;20.87;76.88;95628.37;110594;1276;22109;-77
2023/09/24 08:24:16;;;;;;;7.70;2.40;;;;;;;20.89;76.70;95627.89;110550;1276;23054;-76
2023/09/24 08:26:44;;;;;;;8.80;2.70;;;;;;;20.88;76.31;95628.45;110404;1276;22119;-76
2023/09/24 08:29:12;;;;;;;8.10;2.90;;;;;;;20.87;76.38;95628.86;110423;1276;22281;-76
2023/09/24 08:31:40;;;;;;;10.00;2.70;;;;;;;20.85;76.36;95627.42;110603;1276;22099;-77
2023/09/24 08:34:09;;;;;;;9.20;2.80;;;;;;;20.89;76.76;95627.19;110431;1276;22341;-76
2023/09/24 08:36:37;;;;;;;9.30;2.70;;;;;;;20.95;76.68;95623.41;110569;1276;22188;-77
2023/09/24 08:39:05;;;;;;;11.30;2.70;;;;;;;20.99;76.63;95622.65;110585;1276;22309;-78
2023/09/24 08:41:42;;;;;;;7.70;2.60;;;;;;;21.01;76.28;95625.20;110595;1276;22150;-77
2023/09/24 08:44:17;;;;;;;7.90;2.50;;;;;;;21.04;76.28;95624.36;110606;1276;22113;-77
2023/09/24 08:46:50;;;;;;;6.70;2.60;;;;;;;21.06;76.23;95630.46;110422;1276;22161;-77
2023/09/24 08:49:20;;;;;;;12.80;2.80;;;;;;;21.15;76.39;95633.15;110441;1270;22137;-77
2023/09/24 08:51:49;;;;;;;8.50;2.80;;;;;;;21.21;76.37;95639.58;110556;1266;22137;-77
2023/09/24 08:54:17;;;;;;;10.50;3.20;;;;;;;21.31;75.84;95637.88;110464;1276;22310;-77
2023/09/24 08:56:46;;;;;;;9.00;2.80;;;;;;;21.38;75.95;95640.72;110496;1276;22200;-77
2023/09/24 08:59:14;;;;;;;8.90;3.00;;;;;;;21.52;75.95;95641.68;110567;1276;22160;-77
2023/09/24 09:01:52;;;;;;;9.30;3.00;;;;;;;21.72;75.52;95645.44;109043;1276;1859188;-77
2023/09/24 09:04:21;;;;;;;8.50;2.70;;;;;;;21.87;75.17;95649.77;110605;1276;22989;-77
2023/09/24 09:06:49;;;;;;;8.50;3.10;;;;;;;21.95;74.84;95652.08;110563;1276;22270;-76
2023/09/24 09:09:26;;;;;;;10.10;3.20;;;;;;;21.97;74.04;95654.30;110551;1276;22131;-77
2023/09/24 09:11:54;;;;;;;10.20;3.20;;;;;;;22.03;74.05;95651.92;110320;1276;22123;-77
2023/09/24 09:14:34;;;;;;;9.90;3.60;;;;;;;22.04;73.62;95656.54;110571;1276;22765;-76
2023/09/24 09:17:03;;;;;;;7.50;2.80;;;;;;;22.03;73.33;95655.72;110603;1276;22126;-76
2023/09/24 09:19:48;;;;;;;8.10;3.10;;;;;;;22.07;73.26;95658.67;110396;1276;23050;-76
2023/09/24 09:22:24;;;;;;;13.20;3.00;;;;;;;22.12;72.89;95657.86;110445;1276;22136;-76
2023/09/24 09:25:09;;;;;;;8.30;3.40;;;;;;;22.03;72.70;95657.52;110583;1276;22826;-76
2023/09/24 09:27:43;;;;;;;7.20;3.40;;;;;;;21.97;73.22;95654.27;110431;1276;22969;-76
2023/09/24 09:30:15;;;;;;;7.50;2.80;;;;;;;21.96;73.52;95656.86;110609;1276;22097;-78
2023/09/24 09:32:47;;;;;;;;;;;;;;;22.03;73.74;95657.70;110581;1276;22188;-77
2023/09/24 09:35:16;;;;;;;6.70;2.50;;;;;;;22.13;73.91;95657.27;110572;1276;22278;-76
2023/09/24 09:37:46;;;;;;;6.40;2.60;;;;;;;22.21;73.61;95652.46;110604;1276;23070;-76
2023/09/24 09:40:16;;;;;;;6.20;2.20;;;;;;;22.32;73.66;95657.85;110408;1276;22456;-76
2023/09/24 09:42:49;;;;;;;9.20;2.60;;;;;;;22.58;73.15;95656.02;110314;1276;22789;-76
2023/09/24 09:45:18;;;;;;;6.10;2.60;;;;;;;22.81;72.47;95667.73;110611;1276;22735;-76
2023/09/24 09:48:01;;;;;;;6.80;2.60;;;;;;;22.84;71.41;95677.61;110555;1276;22204;-76
2023/09/24 09:50:37;;;;;;;6.70;2.80;;;;;;;22.77;71.03;95677.73;110570;1276;22219;-75
2023/09/24 09:53:09;;;;;;;10.20;2.80;;;;;;;22.67;70.64;95683.36;110457;1276;22125;-76
2023/09/24 09:55:42;;;;;;;7.90;3.50;;;;;;;22.61;71.13;95680.34;110428;1276;22836;-76
2023/09/24 09:58:11;;;;;;;8.50;2.60;;;;;;;22.59;71.21;95677.61;110572;1276;22109;-76
2023/09/24 10:00:53;;;;;;;4.60;2.90;;;;;;;22.60;71.45;95674.48;110582;1276;22131;-76
2023/09/24 10:03:23;;;;;;;7.60;3.10;;;;;;;22.62;71.43;95681.39;110624;1276;22211;-76
2023/09/24 10:05:53;;;;;;;11.80;4.40;;;;;;;22.69;70.59;95688.80;110626;1266;22141;-76
2023/09/24 10:08:38;;;;;;;9.70;3.50;;;;;;;22.84;70.86;95692.27;110573;1276;22121;-77
2023/09/24 10:11:09;;;;;;;10.90;3.20;;;;;;;22.93;70.24;95694.05;110592;1276;23055;-75
2023/09/24 10:13:47;;;;;;;9.60;3.90;;;;;;;22.93;70.07;95699.62;110445;1276;22853;-76
2023/09/24 10:16:35;;;;;;;8.80;3.80;;;;;;;23.02;69.81;95705.70;110522;1276;22263;-76
2023/09/24 10:19:11;;;;;;;5.60;2.60;;;;;;;23.17;69.59;95708.81;110542;1275;22232;-76
2023/09/24 10:21:43;;;;;;;6.60;3.00;;;;;;;23.23;69.20;95713.60;110553;1276;22185;-77
2023/09/24 10:24:14;;;;;;;6.00;2.80;;;;;;;23.15;69.24;95714.54;110546;1275;22122;-76
2023/09/24 10:26:49;;;;;;;8.40;3.60;;;;;;;22.90;69.02;95716.31;110610;1276;22186;-76
2023/09/24 10:29:19;;;;;;;6.30;2.80;;;;;;;22.87;69.55;95715.94;110632;1276;22202;-76
2023/09/24 10:32:06;;;;;;;10.50;3.60;;;;;;;22.86;69.22;95713.20;110340;1276;22801;-76
2023/09/24 10:34:55;;;;;;;9.00;3.40;;;;;;;22.72;69.32;95714.40;110573;1276;22149;-76
2023/09/24 10:37:29;;;;;;;9.30;3.50;;;;;;;22.68;69.34;95703.19;110564;1276;22842;-76
2023/09/24 10:42:39;;;;;;;6.80;3.30;;;;;;;22.76;70.01;95704.13;110593;1276;22989;-76
2023/09/24 10:45:07;;;;;;;8.50;3.30;;;;;;;22.72;69.59;95706.00;110454;1276;22199;-76
2023/09/24 10:47:41;;;;;;;7.40;3.50;;;;;;;22.82;70.17;95697.96;110596;1276;22237;-76
2023/09/24 10:50:12;;;;;;;9.40;3.10;;;;;;;22.98;69.87;95689.95;110624;1276;22196;-76
2023/09/24 10:53:01;;;;;;;10.20;2.60;;;;;;;23.25;69.93;95685.45;110536;1276;22137;-76
2023/09/24 10:55:29;;;;;;;9.70;2.90;;;;;;;23.57;69.41;95686.35;110478;1275;22133;-76
2023/09/24 10:57:59;;;;;;;6.20;2.50;;;;;;;23.76;68.20;95682.02;110600;1276;22279;-76
2023/09/24 11:00:29;;;;;;;7.10;2.50;;;;;;;23.93;67.80;95686.78;110424;1276;22250;-76
2023/09/24 11:03:05;;;;;;;10.50;3.20;;;;;;;24.02;67.54;95679.31;110440;1276;22138;-76
2023/09/24 11:05:45;;;;;;;8.50;3.00;;;;;;;24.10;66.52;95676.04;110290;1276;22877;-77
2023/09/24 11:08:16;;;;;;;8.50;2.90;;;;;;;24.37;66.45;95675.23;110455;1276;22200;-77
2023/09/24 11:10:49;;;;;;;11.70;3.20;;;;;;;24.59;66.24;95680.13;110570;1276;22206;-77
2023/09/24 11:13:17;;;;;;;6.60;2.70;;;;;;;24.86;64.86;95683.38;110363;1276;22147;-77
2023/09/24 11:15:46;;;;;;;10.80;3.00;;;;;;;24.96;63.73;95678.11;110598;1276;22465;-77
2023/09/24 11:18:14;;;;;;;6.30;3.00;;;;;;;24.85;63.98;95688.10;110391;1276;22123;-77
2023/09/24 11:20:50;;;;;;;10.90;2.90;;;;;;;24.59;64.25;95696.46;110585;1276;22223;-77
2023/09/24 11:23:19;;;;;;;9.20;3.10;;;;;;;24.32;64.85;95704.18;110449;1275;22105;-77
2023/09/24 11:25:49;;;;;;;11.30;3.10;;;;;;;24.01;65.14;95695.38;110564;1276;23086;-77
2023/09/24 11:28:19;;;;;;;10.50;4.00;;;;;;;23.72;65.74;95689.15;110587;1276;22095;-77
2023/09/24 11:30:49;;;;;;;10.90;3.50;;;;;;;23.46;66.58;95695.39;110583;1276;22161;-77
2023/09/24 11:33:23;;;;;;;11.10;3.30;;;;;;;23.27;67.38;95699.17;110564;1276;22121;-77
2023/09/24 11:35:54;;;;;;;8.80;3.00;;;;;;;23.22;68.52;95695.38;110460;1276;22112;-77
2023/09/24 11:38:33;;;;;;;10.00;3.50;;;;;;;23.20;68.66;95688.91;110573;1276;22120;-77
2023/09/24 11:41:09;;;;;;;9.30;3.30;;;;;;;23.14;68.99;95686.23;110286;1276;22229;-77